Bellingham, WA

6:36 AM PST on February 25, 2017 (GMT -0800)
Bellingham Sunnyland | | Change Station
Active Advisory: Special Statement

Elev 59 ft 48.75 °N, 122.47 °W | Updated 7 seconds ago

Overcast
Overcast
29.3 °F
Feels Like 29 °F
N
0.0
Wind Variable Wind from East
Gusts 0.0 mph

Today
High -- | Low -- °F
--% Chance of Precip.
Yesterday
High -- | Low -- °F
Precip. -- in
Pressure 30.27 in
Visibility 10.0 miles
Clouds Overcast 5500 ft
Windchill 29 °F
Dew Point 28 °F
Humidity 96%
Rainfall 0.00 in
Snow Depth Not available.
6:58 AM 5:47 PM
Waning Crescent, 1% visible
METAR KBLI 251353Z AUTO 00000KT 10SM OVC055 M02/M03 A3024 RMK AO2 SLP251 T10221028
Pressure 30.27 in
Visibility 10.0 miles
Clouds Overcast 5500 ft
Windchill 29 °F
Dew Point 28 °F
Humidity 96%
Rainfall 0.00 in
Snow Depth Not available.
6:58 AM 5:47 PM
Waning Crescent, 1% visible
METAR KBLI 251353Z AUTO 00000KT 10SM OVC055 M02/M03 A3024 RMK AO2 SLP251 T10221028

Get Your Daily Forecast Email!

Thanks for signing up!

Be on the lookout for a verification email in your inbox.

You'll start receiving the daily forecast at 8 AM.

×

10-Day Weather Forecast

Almanac

Astronomy

Feb. 25, 2017 Rise Set
Actual Time
Civil Twilight
Nautical Twilight
Astronomical Twilight
Moon
Length of Visible Light
Length of Day
Tomorrow will be .
, % of the Moon is Illuminated

Today's Extremes

State Highs State Lows

Community

WunderPhotos

Upload Photos

1,962,540 photos uploaded!

WunderBlog® & News

Nearby

Air Quality

  Air Quality AQ Index Pollutant
Not available.

Snow Depth

Station Depth Elevation

Earthquake Activity

City Distance Mag. Time & Date
Minimum magnitude displayed is 2.5.

Coastal Water Temperatures

Place Temperature

Stations

Nearby Weather Stations

Station Location Temp. Windchill Dew Point Humidity Wind Precip. Elev Updated Type
                   

Watches & Warnings

Special Statement
Issued: 4:32 AM PST Feb. 25, 2017 – National Weather Service

... Lowland snow accumulations are possible late tonight and on
Sunday morning...

Snow accumulations appear likely on Sunday morning over some
lowland portions of western Washington. Showers are expected to
pick up tonight, peaking in both coverage and intensity on Sunday
morning. Meanwhile, snow levels will range from about 200 to 400
feet for the entire I-5 corridor and throughout the greater Puget
Sound region around the time of sunrise. This has the potential
to drop 1 to 3 inches of snow on hills above 200 to 400 feet on
Sunday morning. Locally heavier accumulations are possible in the
Everett area and in east Puget Sound lowland communities such as
Enumclaw and Eatonville. Below elevations of about 200 feet
including near the shores of Puget Sound, little if any snow
accumulation is expected.

Temperatures will rise into the lower 40s on Sunday afternoon,
causing morning snow accumulations to start melting quickly.